sensor_id;sensor_type;location;lat;lon;timestamp;temperature;humidity
24262;DHT22;12385;51.412;5.540;2023-09-19T00:00:36;15.70;99.90
24262;DHT22;12385;51.412;5.540;2023-09-19T00:03:02;15.70;99.90
24262;DHT22;12385;51.412;5.540;2023-09-19T00:05:30;15.70;99.90
24262;DHT22;12385;51.412;5.540;2023-09-19T00:08:01;15.70;99.90
24262;DHT22;12385;51.412;5.540;2023-09-19T00:10:29;15.70;99.90
24262;DHT22;12385;51.412;5.540;2023-09-19T00:13:02;15.60;99.90
24262;DHT22;12385;51.412;5.540;2023-09-19T00:15:36;15.60;99.90
24262;DHT22;12385;51.412;5.540;2023-09-19T00:18:03;15.60;99.90
24262;DHT22;12385;51.412;5.540;2023-09-19T00:20:32;15.60;99.90
24262;DHT22;12385;51.412;5.540;2023-09-19T00:22:57;15.50;99.90
24262;DHT22;12385;51.412;5.540;2023-09-19T00:25:28;15.50;99.90
24262;DHT22;12385;51.412;5.540;2023-09-19T00:27:54;15.50;99.90
24262;DHT22;12385;51.412;5.540;2023-09-19T00:30:20;15.40;99.90
24262;DHT22;12385;51.412;5.540;2023-09-19T00:32:47;15.40;99.90
24262;DHT22;12385;51.412;5.540;2023-09-19T00:35:14;15.40;99.90
24262;DHT22;12385;51.412;5.540;2023-09-19T00:37:43;15.40;99.90
24262;DHT22;12385;51.412;5.540;2023-09-19T00:40:10;15.30;99.90
24262;DHT22;12385;51.412;5.540;2023-09-19T00:42:41;15.30;99.90
24262;DHT22;12385;51.412;5.540;2023-09-19T00:45:12;15.30;99.90
24262;DHT22;12385;51.412;5.540;2023-09-19T00:47:43;15.30;99.90
24262;DHT22;12385;51.412;5.540;2023-09-19T00:50:13;15.30;99.90
24262;DHT22;12385;51.412;5.540;2023-09-19T00:52:40;15.30;99.90
24262;DHT22;12385;51.412;5.540;2023-09-19T00:55:11;15.30;99.90
24262;DHT22;12385;51.412;5.540;2023-09-19T00:57:39;15.20;99.90
24262;DHT22;12385;51.412;5.540;2023-09-19T01:00:07;15.20;99.90
24262;DHT22;12385;51.412;5.540;2023-09-19T01:02:34;15.20;99.90
24262;DHT22;12385;51.412;5.540;2023-09-19T01:05:01;15.20;99.90
24262;DHT22;12385;51.412;5.540;2023-09-19T01:07:27;15.20;99.90
24262;DHT22;12385;51.412;5.540;2023-09-19T01:09:56;15.20;99.90
24262;DHT22;12385;51.412;5.540;2023-09-19T01:12:36;15.20;99.90
24262;DHT22;12385;51.412;5.540;2023-09-19T01:17:51;15.10;99.90
24262;DHT22;12385;51.412;5.540;2023-09-19T01:26:07;15.10;99.90
24262;DHT22;12385;51.412;5.540;2023-09-19T01:28:44;15.00;99.90
24262;DHT22;12385;51.412;5.540;2023-09-19T01:31:12;15.00;99.90
24262;DHT22;12385;51.412;5.540;2023-09-19T01:34:02;15.00;99.90
24262;DHT22;12385;51.412;5.540;2023-09-19T01:36:34;15.00;99.90
24262;DHT22;12385;51.412;5.540;2023-09-19T01:39:13;15.00;99.90
24262;DHT22;12385;51.412;5.540;2023-09-19T01:41:52;15.00;99.90
24262;DHT22;12385;51.412;5.540;2023-09-19T01:44:35;15.00;99.90
24262;DHT22;12385;51.412;5.540;2023-09-19T01:47:17;14.90;99.90
24262;DHT22;12385;51.412;5.540;2023-09-19T01:52:38;14.90;99.90
24262;DHT22;12385;51.412;5.540;2023-09-19T01:55:09;14.90;99.90
24262;DHT22;12385;51.412;5.540;2023-09-19T02:00:16;14.90;99.90
24262;DHT22;12385;51.412;5.540;2023-09-19T02:02:47;14.90;99.90
24262;DHT22;12385;51.412;5.540;2023-09-19T02:05:13;14.90;99.90
24262;DHT22;12385;51.412;5.540;2023-09-19T02:07:47;14.90;99.90
24262;DHT22;12385;51.412;5.540;2023-09-19T02:10:13;14.90;99.90
24262;DHT22;12385;51.412;5.540;2023-09-19T02:12:39;14.80;99.90
24262;DHT22;12385;51.412;5.540;2023-09-19T02:15:05;14.90;99.90
24262;DHT22;12385;51.412;5.540;2023-09-19T02:17:32;14.90;99.90
24262;DHT22;12385;51.412;5.540;2023-09-19T02:19:58;14.80;99.90
24262;DHT22;12385;51.412;5.540;2023-09-19T02:22:24;14.80;99.90
24262;DHT22;12385;51.412;5.540;2023-09-19T02:24:50;14.80;99.90
24262;DHT22;12385;51.412;5.540;2023-09-19T02:27:16;14.80;99.90
24262;DHT22;12385;51.412;5.540;2023-09-19T02:29:43;14.70;99.90
24262;DHT22;12385;51.412;5.540;2023-09-19T02:32:09;14.70;99.90
24262;DHT22;12385;51.412;5.540;2023-09-19T02:34:37;14.70;99.90
24262;DHT22;12385;51.412;5.540;2023-09-19T02:37:04;14.70;99.90
24262;DHT22;12385;51.412;5.540;2023-09-19T02:39:31;14.70;99.90
24262;DHT22;12385;51.412;5.540;2023-09-19T02:41:56;14.60;99.90
24262;DHT22;12385;51.412;5.540;2023-09-19T02:44:22;14.60;99.90
24262;DHT22;12385;51.412;5.540;2023-09-19T02:46:49;14.60;99.90
24262;DHT22;12385;51.412;5.540;2023-09-19T02:49:15;14.60;99.90
24262;DHT22;12385;51.412;5.540;2023-09-19T02:51:40;14.60;99.90
24262;DHT22;12385;51.412;5.540;2023-09-19T02:54:06;14.60;99.90
24262;DHT22;12385;51.412;5.540;2023-09-19T02:56:32;14.60;99.90
24262;DHT22;12385;51.412;5.540;2023-09-19T02:58:58;14.50;99.90
24262;DHT22;12385;51.412;5.540;2023-09-19T03:01:25;14.50;99.90
24262;DHT22;12385;51.412;5.540;2023-09-19T03:03:52;14.50;99.90
24262;DHT22;12385;51.412;5.540;2023-09-19T03:06:18;14.50;99.90
24262;DHT22;12385;51.412;5.540;2023-09-19T03:08:45;14.50;99.90
24262;DHT22;12385;51.412;5.540;2023-09-19T03:11:12;14.50;99.90
24262;DHT22;12385;51.412;5.540;2023-09-19T03:13:41;14.50;99.90
24262;DHT22;12385;51.412;5.540;2023-09-19T03:16:08;14.50;99.90
24262;DHT22;12385;51.412;5.540;2023-09-19T03:18:34;14.50;99.90
24262;DHT22;12385;51.412;5.540;2023-09-19T03:21:01;14.50;99.90
24262;DHT22;12385;51.412;5.540;2023-09-19T03:23:27;14.50;99.90
24262;DHT22;12385;51.412;5.540;2023-09-19T03:25:56;14.40;99.90
24262;DHT22;12385;51.412;5.540;2023-09-19T03:28:24;14.40;99.90
24262;DHT22;12385;51.412;5.540;2023-09-19T03:31:03;14.40;99.90
24262;DHT22;12385;51.412;5.540;2023-09-19T03:33:29;14.40;99.90
24262;DHT22;12385;51.412;5.540;2023-09-19T03:35:57;14.40;99.90
24262;DHT22;12385;51.412;5.540;2023-09-19T03:38:27;14.30;99.90
24262;DHT22;12385;51.412;5.540;2023-09-19T03:40:54;14.40;99.90
24262;DHT22;12385;51.412;5.540;2023-09-19T03:43:20;14.40;99.90
24262;DHT22;12385;51.412;5.540;2023-09-19T03:45:46;14.30;99.90
24262;DHT22;12385;51.412;5.540;2023-09-19T03:48:16;14.40;99.90
24262;DHT22;12385;51.412;5.540;2023-09-19T03:50:42;14.40;99.90
24262;DHT22;12385;51.412;5.540;2023-09-19T03:53:09;14.40;99.90
24262;DHT22;12385;51.412;5.540;2023-09-19T03:55:35;14.30;99.90
24262;DHT22;12385;51.412;5.540;2023-09-19T03:58:01;14.40;99.90
24262;DHT22;12385;51.412;5.540;2023-09-19T04:00:28;14.40;99.90
24262;DHT22;12385;51.412;5.540;2023-09-19T04:02:55;14.40;99.90
24262;DHT22;12385;51.412;5.540;2023-09-19T04:05:22;14.40;99.90
24262;DHT22;12385;51.412;5.540;2023-09-19T04:07:48;14.40;99.90
24262;DHT22;12385;51.412;5.540;2023-09-19T04:10:14;14.40;99.90
24262;DHT22;12385;51.412;5.540;2023-09-19T04:12:40;14.40;99.90
24262;DHT22;12385;51.412;5.540;2023-09-19T04:15:06;14.40;99.90
24262;DHT22;12385;51.412;5.540;2023-09-19T04:17:32;14.30;99.90
24262;DHT22;12385;51.412;5.540;2023-09-19T04:20:01;14.30;99.90
24262;DHT22;12385;51.412;5.540;2023-09-19T04:22:26;14.40;99.90
24262;DHT22;12385;51.412;5.540;2023-09-19T04:24:52;14.30;99.90
24262;DHT22;12385;51.412;5.540;2023-09-19T04:27:17;14.30;99.90
24262;DHT22;12385;51.412;5.540;2023-09-19T04:29:44;14.30;99.90
24262;DHT22;12385;51.412;5.540;2023-09-19T04:32:10;14.40;99.90
24262;DHT22;12385;51.412;5.540;2023-09-19T04:34:36;14.30;99.90
24262;DHT22;12385;51.412;5.540;2023-09-19T04:37:03;14.40;99.90
24262;DHT22;12385;51.412;5.540;2023-09-19T04:39:29;14.40;99.90
24262;DHT22;12385;51.412;5.540;2023-09-19T04:41:55;14.40;99.90
24262;DHT22;12385;51.412;5.540;2023-09-19T04:44:20;14.40;99.90
24262;DHT22;12385;51.412;5.540;2023-09-19T04:46:47;14.40;99.90
24262;DHT22;12385;51.412;5.540;2023-09-19T04:49:12;14.40;99.90
24262;DHT22;12385;51.412;5.540;2023-09-19T04:51:38;14.50;99.90
24262;DHT22;12385;51.412;5.540;2023-09-19T04:54:06;14.50;99.90
24262;DHT22;12385;51.412;5.540;2023-09-19T04:56:32;14.50;99.90
24262;DHT22;12385;51.412;5.540;2023-09-19T04:58:59;14.50;99.90
24262;DHT22;12385;51.412;5.540;2023-09-19T05:01:25;14.60;99.90
24262;DHT22;12385;51.412;5.540;2023-09-19T05:03:51;14.60;99.90
24262;DHT22;12385;51.412;5.540;2023-09-19T05:06:20;14.70;99.90
24262;DHT22;12385;51.412;5.540;2023-09-19T05:08:49;14.70;99.90
24262;DHT22;12385;51.412;5.540;2023-09-19T05:11:21;14.70;99.90
24262;DHT22;12385;51.412;5.540;2023-09-19T05:13:48;14.80;99.90
24262;DHT22;12385;51.412;5.540;2023-09-19T05:16:16;14.80;99.90
24262;DHT22;12385;51.412;5.540;2023-09-19T05:18:42;14.80;99.90
24262;DHT22;12385;51.412;5.540;2023-09-19T05:21:08;14.80;99.90
24262;DHT22;12385;51.412;5.540;2023-09-19T05:23:34;14.80;99.90
24262;DHT22;12385;51.412;5.540;2023-09-19T05:25:59;14.80;99.90
24262;DHT22;12385;51.412;5.540;2023-09-19T05:28:25;14.70;99.90
24262;DHT22;12385;51.412;5.540;2023-09-19T05:30:52;14.70;99.90
24262;DHT22;12385;51.412;5.540;2023-09-19T05:33:19;14.70;99.90
24262;DHT22;12385;51.412;5.540;2023-09-19T05:35:45;14.60;99.90
24262;DHT22;12385;51.412;5.540;2023-09-19T05:38:12;14.60;99.90
24262;DHT22;12385;51.412;5.540;2023-09-19T05:40:39;14.60;99.90
24262;DHT22;12385;51.412;5.540;2023-09-19T05:43:07;14.60;99.90
24262;DHT22;12385;51.412;5.540;2023-09-19T05:45:33;14.60;99.90
24262;DHT22;12385;51.412;5.540;2023-09-19T05:48:11;14.60;99.90
24262;DHT22;12385;51.412;5.540;2023-09-19T05:50:39;14.50;99.90
24262;DHT22;12385;51.412;5.540;2023-09-19T05:53:05;14.50;99.90
24262;DHT22;12385;51.412;5.540;2023-09-19T05:55:32;14.50;99.90
24262;DHT22;12385;51.412;5.540;2023-09-19T05:57:57;14.50;99.90
24262;DHT22;12385;51.412;5.540;2023-09-19T06:00:24;14.50;99.90
24262;DHT22;12385;51.412;5.540;2023-09-19T06:02:56;14.60;99.90
24262;DHT22;12385;51.412;5.540;2023-09-19T06:05:23;14.60;99.90
24262;DHT22;12385;51.412;5.540;2023-09-19T06:07:48;14.60;99.90
24262;DHT22;12385;51.412;5.540;2023-09-19T06:10:15;14.60;99.90
24262;DHT22;12385;51.412;5.540;2023-09-19T06:12:41;14.60;99.90
24262;DHT22;12385;51.412;5.540;2023-09-19T06:15:10;14.60;99.90
24262;DHT22;12385;51.412;5.540;2023-09-19T06:17:46;14.70;99.90
24262;DHT22;12385;51.412;5.540;2023-09-19T06:20:12;14.70;99.90
24262;DHT22;12385;51.412;5.540;2023-09-19T06:22:45;14.70;99.90
24262;DHT22;12385;51.412;5.540;2023-09-19T06:25:12;14.80;99.90
24262;DHT22;12385;51.412;5.540;2023-09-19T06:27:41;14.80;99.90
24262;DHT22;12385;51.412;5.540;2023-09-19T06:30:09;14.80;99.90
24262;DHT22;12385;51.412;5.540;2023-09-19T06:32:35;14.80;99.90
24262;DHT22;12385;51.412;5.540;2023-09-19T06:35:00;14.80;99.90
24262;DHT22;12385;51.412;5.540;2023-09-19T06:37:28;14.90;99.90
24262;DHT22;12385;51.412;5.540;2023-09-19T06:39:53;14.90;99.90
24262;DHT22;12385;51.412;5.540;2023-09-19T06:42:19;14.90;99.90
24262;DHT22;12385;51.412;5.540;2023-09-19T06:44:45;14.90;99.90
24262;DHT22;12385;51.412;5.540;2023-09-19T06:47:10;14.90;99.90
24262;DHT22;12385;51.412;5.540;2023-09-19T06:49:36;15.00;99.90
24262;DHT22;12385;51.412;5.540;2023-09-19T06:52:02;15.00;99.90
24262;DHT22;12385;51.412;5.540;2023-09-19T06:54:28;15.00;99.90
24262;DHT22;12385;51.412;5.540;2023-09-19T06:57:00;15.10;99.90
24262;DHT22;12385;51.412;5.540;2023-09-19T06:59:26;15.10;99.90
24262;DHT22;12385;51.412;5.540;2023-09-19T07:01:51;15.20;99.90
24262;DHT22;12385;51.412;5.540;2023-09-19T07:04:17;15.20;99.90
24262;DHT22;12385;51.412;5.540;2023-09-19T07:06:51;15.20;99.90
24262;DHT22;12385;51.412;5.540;2023-09-19T07:09:17;15.30;99.90
24262;DHT22;12385;51.412;5.540;2023-09-19T07:11:45;15.30;99.90
24262;DHT22;12385;51.412;5.540;2023-09-19T07:14:10;15.40;99.90
24262;DHT22;12385;51.412;5.540;2023-09-19T07:16:39;15.40;99.90
24262;DHT22;12385;51.412;5.540;2023-09-19T07:19:08;15.50;99.90
24262;DHT22;12385;51.412;5.540;2023-09-19T07:21:33;15.50;99.90
24262;DHT22;12385;51.412;5.540;2023-09-19T07:24:00;15.50;99.90
24262;DHT22;12385;51.412;5.540;2023-09-19T07:26:27;15.50;99.90
24262;DHT22;12385;51.412;5.540;2023-09-19T07:28:54;15.60;99.90
24262;DHT22;12385;51.412;5.540;2023-09-19T07:31:20;15.60;99.90
24262;DHT22;12385;51.412;5.540;2023-09-19T07:33:48;15.70;99.90
24262;DHT22;12385;51.412;5.540;2023-09-19T07:36:13;15.80;99.90
24262;DHT22;12385;51.412;5.540;2023-09-19T07:38:40;15.80;99.90
24262;DHT22;12385;51.412;5.540;2023-09-19T07:41:07;15.90;99.90
24262;DHT22;12385;51.412;5.540;2023-09-19T07:43:35;15.90;99.90
24262;DHT22;12385;51.412;5.540;2023-09-19T07:46:07;15.90;99.90
24262;DHT22;12385;51.412;5.540;2023-09-19T07:48:35;15.90;99.90
24262;DHT22;12385;51.412;5.540;2023-09-19T07:51:06;16.00;99.90
24262;DHT22;12385;51.412;5.540;2023-09-19T07:53:33;15.90;99.90
24262;DHT22;12385;51.412;5.540;2023-09-19T07:56:08;16.00;99.90
24262;DHT22;12385;51.412;5.540;2023-09-19T07:58:35;16.10;99.90
24262;DHT22;12385;51.412;5.540;2023-09-19T08:01:10;16.10;99.90
24262;DHT22;12385;51.412;5.540;2023-09-19T08:03:36;16.20;99.90
24262;DHT22;12385;51.412;5.540;2023-09-19T08:06:06;16.20;99.90
24262;DHT22;12385;51.412;5.540;2023-09-19T08:08:33;16.20;99.90
24262;DHT22;12385;51.412;5.540;2023-09-19T08:11:06;16.30;99.90
24262;DHT22;12385;51.412;5.540;2023-09-19T08:13:46;16.40;99.90
24262;DHT22;12385;51.412;5.540;2023-09-19T08:16:15;16.50;99.90
24262;DHT22;12385;51.412;5.540;2023-09-19T08:18:41;16.50;99.90
24262;DHT22;12385;51.412;5.540;2023-09-19T08:21:08;16.60;99.90
24262;DHT22;12385;51.412;5.540;2023-09-19T08:23:40;16.60;99.90
24262;DHT22;12385;51.412;5.540;2023-09-19T08:26:06;16.70;99.90
24262;DHT22;12385;51.412;5.540;2023-09-19T08:28:34;16.60;99.90
24262;DHT22;12385;51.412;5.540;2023-09-19T08:31:03;16.70;99.90
24262;DHT22;12385;51.412;5.540;2023-09-19T08:33:33;16.70;99.90
24262;DHT22;12385;51.412;5.540;2023-09-19T08:35:59;16.70;99.90
24262;DHT22;12385;51.412;5.540;2023-09-19T08:38:25;16.80;99.90
24262;DHT22;12385;51.412;5.540;2023-09-19T08:40:57;16.80;99.90
24262;DHT22;12385;51.412;5.540;2023-09-19T08:43:25;16.80;99.90
24262;DHT22;12385;51.412;5.540;2023-09-19T08:45:53;16.70;99.90
24262;DHT22;12385;51.412;5.540;2023-09-19T08:48:28;16.80;99.90
24262;DHT22;12385;51.412;5.540;2023-09-19T08:53:50;17.00;99.90
24262;DHT22;12385;51.412;5.540;2023-09-19T08:56:13;17.10;99.90
24262;DHT22;12385;51.412;5.540;2023-09-19T08:58:53;17.20;99.90
24262;DHT22;12385;51.412;5.540;2023-09-19T09:01:21;17.20;99.90
24262;DHT22;12385;51.412;5.540;2023-09-19T09:03:52;17.20;99.90
24262;DHT22;12385;51.412;5.540;2023-09-19T09:06:20;17.20;99.90
24262;DHT22;12385;51.412;5.540;2023-09-19T09:08:46;17.20;99.90
24262;DHT22;12385;51.412;5.540;2023-09-19T09:11:14;17.20;99.90
24262;DHT22;12385;51.412;5.540;2023-09-19T09:13:42;17.20;99.90
24262;DHT22;12385;51.412;5.540;2023-09-19T09:16:08;17.20;99.90
24262;DHT22;12385;51.412;5.540;2023-09-19T09:18:35;17.20;99.90
24262;DHT22;12385;51.412;5.540;2023-09-19T09:21:01;17.30;99.90
24262;DHT22;12385;51.412;5.540;2023-09-19T09:23:27;17.30;99.90
24262;DHT22;12385;51.412;5.540;2023-09-19T09:25:55;17.40;99.90
24262;DHT22;12385;51.412;5.540;2023-09-19T09:28:25;17.40;99.90
24262;DHT22;12385;51.412;5.540;2023-09-19T09:30:53;17.50;99.90
24262;DHT22;12385;51.412;5.540;2023-09-19T09:33:19;17.60;99.90
24262;DHT22;12385;51.412;5.540;2023-09-19T09:35:57;17.60;99.90
24262;DHT22;12385;51.412;5.540;2023-09-19T09:38:27;17.60;99.90
24262;DHT22;12385;51.412;5.540;2023-09-19T09:40:54;17.70;99.90
24262;DHT22;12385;51.412;5.540;2023-09-19T09:43:40;17.70;99.90
24262;DHT22;12385;51.412;5.540;2023-09-19T09:49:04;17.80;99.90
24262;DHT22;12385;51.412;5.540;2023-09-19T09:54:59;18.00;99.90
24262;DHT22;12385;51.412;5.540;2023-09-19T09:57:33;18.20;99.90
24262;DHT22;12385;51.412;5.540;2023-09-19T10:00:00;18.30;99.90
24262;DHT22;12385;51.412;5.540;2023-09-19T10:02:46;18.30;99.90
24262;DHT22;12385;51.412;5.540;2023-09-19T10:05:13;18.30;99.90
24262;DHT22;12385;51.412;5.540;2023-09-19T10:07:48;18.40;99.90
24262;DHT22;12385;51.412;5.540;2023-09-19T10:10:33;18.40;99.90
24262;DHT22;12385;51.412;5.540;2023-09-19T10:13:14;18.50;99.90
24262;DHT22;12385;51.412;5.540;2023-09-19T10:15:47;18.50;99.90
24262;DHT22;12385;51.412;5.540;2023-09-19T10:18:27;18.40;99.90
24262;DHT22;12385;51.412;5.540;2023-09-19T10:20:55;18.40;99.90
24262;DHT22;12385;51.412;5.540;2023-09-19T10:23:22;18.30;99.90
24262;DHT22;12385;51.412;5.540;2023-09-19T10:25:49;18.30;99.90
24262;DHT22;12385;51.412;5.540;2023-09-19T10:28:18;18.30;99.90
24262;DHT22;12385;51.412;5.540;2023-09-19T10:30:49;18.40;99.90
24262;DHT22;12385;51.412;5.540;2023-09-19T10:33:19;18.40;99.90
24262;DHT22;12385;51.412;5.540;2023-09-19T10:35:54;18.50;99.90
24262;DHT22;12385;51.412;5.540;2023-09-19T10:38:26;18.50;99.90
24262;DHT22;12385;51.412;5.540;2023-09-19T10:40:56;18.50;99.90
24262;DHT22;12385;51.412;5.540;2023-09-19T10:43:29;18.60;99.90
24262;DHT22;12385;51.412;5.540;2023-09-19T10:46:00;18.70;99.90
24262;DHT22;12385;51.412;5.540;2023-09-19T10:48:26;18.80;99.90
24262;DHT22;12385;51.412;5.540;2023-09-19T10:51:06;18.80;99.90
24262;DHT22;12385;51.412;5.540;2023-09-19T10:56:08;19.00;99.90
24262;DHT22;12385;51.412;5.540;2023-09-19T10:58:40;19.10;99.90
24262;DHT22;12385;51.412;5.540;2023-09-19T11:01:11;19.20;99.90
24262;DHT22;12385;51.412;5.540;2023-09-19T11:03:44;19.30;99.90
24262;DHT22;12385;51.412;5.540;2023-09-19T11:09:05;19.50;99.90
24262;DHT22;12385;51.412;5.540;2023-09-19T11:30:48;19.90;99.90
24262;DHT22;12385;51.412;5.540;2023-09-19T11:33:31;19.90;99.90
24262;DHT22;12385;51.412;5.540;2023-09-19T11:36:05;20.00;99.90
24262;DHT22;12385;51.412;5.540;2023-09-19T11:44:30;19.90;99.90
24262;DHT22;12385;51.412;5.540;2023-09-19T11:46:52;19.90;99.90
24262;DHT22;12385;51.412;5.540;2023-09-19T11:49:25;19.90;99.90
24262;DHT22;12385;51.412;5.540;2023-09-19T11:51:52;20.00;99.90
24262;DHT22;12385;51.412;5.540;2023-09-19T11:54:19;20.10;99.90
24262;DHT22;12385;51.412;5.540;2023-09-19T11:56:50;20.30;99.90
24262;DHT22;12385;51.412;5.540;2023-09-19T11:59:28;20.40;99.90
24262;DHT22;12385;51.412;5.540;2023-09-19T12:01:57;20.50;99.90
24262;DHT22;12385;51.412;5.540;2023-09-19T12:04:36;20.50;99.90
24262;DHT22;12385;51.412;5.540;2023-09-19T12:07:04;20.70;99.90
24262;DHT22;12385;51.412;5.540;2023-09-19T12:09:31;20.80;99.90
24262;DHT22;12385;51.412;5.540;2023-09-19T12:11:58;20.90;99.90
24262;DHT22;12385;51.412;5.540;2023-09-19T12:14:24;21.00;99.90
24262;DHT22;12385;51.412;5.540;2023-09-19T12:16:58;21.10;99.90
24262;DHT22;12385;51.412;5.540;2023-09-19T12:19:24;21.10;99.90
24262;DHT22;12385;51.412;5.540;2023-09-19T12:22:00;21.00;99.90
24262;DHT22;12385;51.412;5.540;2023-09-19T12:24:34;21.00;99.90
24262;DHT22;12385;51.412;5.540;2023-09-19T12:27:06;21.10;99.90
24262;DHT22;12385;51.412;5.540;2023-09-19T12:29:43;21.10;99.90
24262;DHT22;12385;51.412;5.540;2023-09-19T12:32:09;21.10;99.90
24262;DHT22;12385;51.412;5.540;2023-09-19T12:34:35;21.20;99.90
24262;DHT22;12385;51.412;5.540;2023-09-19T12:37:05;21.30;99.90
24262;DHT22;12385;51.412;5.540;2023-09-19T12:39:37;21.40;99.90
24262;DHT22;12385;51.412;5.540;2023-09-19T12:42:03;21.50;99.90
24262;DHT22;12385;51.412;5.540;2023-09-19T12:44:31;21.60;99.90
24262;DHT22;12385;51.412;5.540;2023-09-19T12:47:07;21.50;99.90
24262;DHT22;12385;51.412;5.540;2023-09-19T12:49:34;21.40;99.90
24262;DHT22;12385;51.412;5.540;2023-09-19T12:52:00;21.20;99.90
24262;DHT22;12385;51.412;5.540;2023-09-19T12:54:38;21.10;99.90
24262;DHT22;12385;51.412;5.540;2023-09-19T12:57:04;21.10;99.90
24262;DHT22;12385;51.412;5.540;2023-09-19T12:59:30;21.10;99.90
24262;DHT22;12385;51.412;5.540;2023-09-19T13:02:04;21.20;99.90
24262;DHT22;12385;51.412;5.540;2023-09-19T13:04:31;21.20;99.90
24262;DHT22;12385;51.412;5.540;2023-09-19T13:06:57;21.20;99.90
24262;DHT22;12385;51.412;5.540;2023-09-19T13:09:27;21.40;99.90
24262;DHT22;12385;51.412;5.540;2023-09-19T13:12:05;21.50;99.90
24262;DHT22;12385;51.412;5.540;2023-09-19T13:14:33;21.60;99.90
24262;DHT22;12385;51.412;5.540;2023-09-19T13:17:06;21.60;99.90
24262;DHT22;12385;51.412;5.540;2023-09-19T13:22:44;21.90;99.90
24262;DHT22;12385;51.412;5.540;2023-09-19T13:25:21;22.00;99.90
24262;DHT22;12385;51.412;5.540;2023-09-19T13:27:52;22.10;99.90
24262;DHT22;12385;51.412;5.540;2023-09-19T13:30:20;21.90;99.90
24262;DHT22;12385;51.412;5.540;2023-09-19T13:32:46;21.80;99.90
24262;DHT22;12385;51.412;5.540;2023-09-19T13:35:13;21.70;99.90
24262;DHT22;12385;51.412;5.540;2023-09-19T13:37:39;21.50;99.90
24262;DHT22;12385;51.412;5.540;2023-09-19T13:40:12;21.40;99.90
24262;DHT22;12385;51.412;5.540;2023-09-19T13:42:38;21.30;99.90
24262;DHT22;12385;51.412;5.540;2023-09-19T13:45:05;21.20;99.90
24262;DHT22;12385;51.412;5.540;2023-09-19T13:47:32;21.10;99.90
24262;DHT22;12385;51.412;5.540;2023-09-19T13:50:02;21.10;99.90
24262;DHT22;12385;51.412;5.540;2023-09-19T13:52:33;21.00;99.90
24262;DHT22;12385;51.412;5.540;2023-09-19T13:54:59;20.90;99.90
24262;DHT22;12385;51.412;5.540;2023-09-19T13:57:25;20.90;99.90
24262;DHT22;12385;51.412;5.540;2023-09-19T13:59:51;20.90;99.90
24262;DHT22;12385;51.412;5.540;2023-09-19T14:02:17;20.90;99.90
24262;DHT22;12385;51.412;5.540;2023-09-19T14:04:48;20.80;99.90
24262;DHT22;12385;51.412;5.540;2023-09-19T14:07:15;20.80;99.90
24262;DHT22;12385;51.412;5.540;2023-09-19T14:09:41;20.80;99.90
24262;DHT22;12385;51.412;5.540;2023-09-19T14:12:06;20.90;99.90
24262;DHT22;12385;51.412;5.540;2023-09-19T14:14:32;20.90;99.90
24262;DHT22;12385;51.412;5.540;2023-09-19T14:16:58;21.00;99.90
24262;DHT22;12385;51.412;5.540;2023-09-19T14:19:26;21.00;99.90
24262;DHT22;12385;51.412;5.540;2023-09-19T14:21:52;21.00;99.90
24262;DHT22;12385;51.412;5.540;2023-09-19T14:24:21;21.10;99.90
24262;DHT22;12385;51.412;5.540;2023-09-19T14:26:46;21.20;99.90
24262;DHT22;12385;51.412;5.540;2023-09-19T14:29:12;21.20;99.90
24262;DHT22;12385;51.412;5.540;2023-09-19T14:31:38;21.20;99.90
24262;DHT22;12385;51.412;5.540;2023-09-19T14:34:05;21.40;99.90
24262;DHT22;12385;51.412;5.540;2023-09-19T14:36:31;21.50;99.90
24262;DHT22;12385;51.412;5.540;2023-09-19T14:38:58;21.90;99.90
24262;DHT22;12385;51.412;5.540;2023-09-19T14:41:24;22.30;99.90
24262;DHT22;12385;51.412;5.540;2023-09-19T14:43:54;22.60;99.90
24262;DHT22;12385;51.412;5.540;2023-09-19T14:46:22;22.70;99.90
24262;DHT22;12385;51.412;5.540;2023-09-19T14:48:51;22.80;99.90
24262;DHT22;12385;51.412;5.540;2023-09-19T14:51:16;22.90;99.90
24262;DHT22;12385;51.412;5.540;2023-09-19T14:53:45;22.90;99.90
24262;DHT22;12385;51.412;5.540;2023-09-19T14:56:11;23.00;99.90
24262;DHT22;12385;51.412;5.540;2023-09-19T14:58:38;23.10;99.90
24262;DHT22;12385;51.412;5.540;2023-09-19T15:01:09;23.00;99.90
24262;DHT22;12385;51.412;5.540;2023-09-19T15:03:39;22.80;99.90
24262;DHT22;12385;51.412;5.540;2023-09-19T15:06:07;22.50;99.90
24262;DHT22;12385;51.412;5.540;2023-09-19T15:08:36;22.40;99.90
24262;DHT22;12385;51.412;5.540;2023-09-19T15:11:06;22.20;99.90
24262;DHT22;12385;51.412;5.540;2023-09-19T15:13:33;22.10;99.90
24262;DHT22;12385;51.412;5.540;2023-09-19T15:18:29;22.00;99.90
24262;DHT22;12385;51.412;5.540;2023-09-19T15:21:05;22.00;99.90
24262;DHT22;12385;51.412;5.540;2023-09-19T15:23:35;22.00;99.90
24262;DHT22;12385;51.412;5.540;2023-09-19T15:26:02;22.00;99.90
24262;DHT22;12385;51.412;5.540;2023-09-19T15:28:28;22.00;99.90
24262;DHT22;12385;51.412;5.540;2023-09-19T15:31:04;22.10;99.90
24262;DHT22;12385;51.412;5.540;2023-09-19T15:33:31;22.20;99.90
24262;DHT22;12385;51.412;5.540;2023-09-19T15:36:09;22.20;99.90
24262;DHT22;12385;51.412;5.540;2023-09-19T15:38:55;22.00;99.90
24262;DHT22;12385;51.412;5.540;2023-09-19T15:41:36;21.90;99.90
24262;DHT22;12385;51.412;5.540;2023-09-19T15:44:15;21.60;99.90
24262;DHT22;12385;51.412;5.540;2023-09-19T15:46:42;21.50;99.90
24262;DHT22;12385;51.412;5.540;2023-09-19T15:49:08;21.40;99.90
24262;DHT22;12385;51.412;5.540;2023-09-19T15:51:34;21.20;99.90
24262;DHT22;12385;51.412;5.540;2023-09-19T15:54:01;21.10;99.90
24262;DHT22;12385;51.412;5.540;2023-09-19T15:56:33;21.00;99.90
24262;DHT22;12385;51.412;5.540;2023-09-19T15:59:00;20.90;99.90
24262;DHT22;12385;51.412;5.540;2023-09-19T16:01:27;20.80;99.90
24262;DHT22;12385;51.412;5.540;2023-09-19T16:03:53;20.80;99.90
24262;DHT22;12385;51.412;5.540;2023-09-19T16:06:25;20.70;99.90
24262;DHT22;12385;51.412;5.540;2023-09-19T16:08:53;20.70;99.90
24262;DHT22;12385;51.412;5.540;2023-09-19T16:11:20;20.70;99.90
24262;DHT22;12385;51.412;5.540;2023-09-19T16:13:47;20.60;99.90
24262;DHT22;12385;51.412;5.540;2023-09-19T16:16:14;20.60;99.90
24262;DHT22;12385;51.412;5.540;2023-09-19T16:18:56;20.60;99.90
24262;DHT22;12385;51.412;5.540;2023-09-19T16:21:23;20.50;99.90
24262;DHT22;12385;51.412;5.540;2023-09-19T16:23:50;20.50;99.90
24262;DHT22;12385;51.412;5.540;2023-09-19T16:26:17;20.50;99.90
24262;DHT22;12385;51.412;5.540;2023-09-19T16:28:47;20.50;99.90
24262;DHT22;12385;51.412;5.540;2023-09-19T16:31:15;20.50;99.90
24262;DHT22;12385;51.412;5.540;2023-09-19T16:33:44;20.40;99.90
24262;DHT22;12385;51.412;5.540;2023-09-19T16:36:15;20.40;99.90
24262;DHT22;12385;51.412;5.540;2023-09-19T16:38:43;20.40;99.90